Eikamaru No.2 — JD3056 — position and weather

sailwx.info

Track history (hours):
 
Tides and Currents Weather Stations Pressure Air Temp Water Temp Dewpoint Dewpoint Depression Visibility Wind Speed Wind Dir Waves Ship Positions

Eikamaru No.2

Last reported at 2014-Nov-23 05:21 UTC. Time now 2014-Nov-23 12:25 UTC.
Position N 35°16' E 139°46'.

Length 60 m; draft 3.3 m.

Type: Tanker. MMSI: 431001342.

Date/timePositionNaut miles runAvg speedWind from/ knotsBaromVisibWave heightAir tempDewpointWater temp
2014-Nov-23 05:21N 35°16' E 139°46'810.3
2014-Nov-23 04:33N 35°24' E 139°43'1211.4
2014-Nov-23 03:33N 35°31' E 139°54'6 1.1
2014-Nov-22 22:33N 35°33' E 140°00'0 0.0
2014-Nov-22 21:33N 35°33' E 140°00'0 0.0
2014-Nov-22 20:33N 35°33' E 140°00'0 0.0
2014-Nov-22 19:33N 35°33' E 140°00'6 5.7
2014-Nov-22 18:33N 35°30' E 139°54'1212.1
2014-Nov-22 17:33N 35°21' E 139°45'2 0.1
2014-Nov-21 04:33N 35°19' E 139°43'10 9.8
2014-Nov-21 03:33N 35°28' E 139°48'10 2.3
2014-Nov-20 23:27N 35°28' E 140°00'4 0.2
2014-Nov-20 03:30N 35°32' E 140°01'5 0.5
2014-Nov-19 18:16N 35°29' E 139°55'0 0.0
2014-Nov-19 17:33N 35°29' E 139°55'0 0.0
2014-Nov-19 16:33N 35°29' E 139°55'0 0.1
2014-Nov-19 15:32N 35°29' E 139°55'0 0.1
2014-Nov-19 14:33N 35°29' E 139°55'9 9.2
2014-Nov-19 13:33N 35°24' E 139°46'1111.4
2014-Nov-19 12:33N 35°12' E 139°47'9 0.4
2014-Nov-18 10:33N 35°21' E 139°42'1111.2
2014-Nov-18 09:33N 35°30' E 139°51'8 1.8
2014-Nov-18 05:08N 35°33' E 140°00'5 1.3
2014-Nov-18 01:08N 35°29' E 139°56'0 0.0
2014-Nov-18 00:29N 35°29' E 139°56'0 0.0
2014-Nov-17 23:16N 35°29' E 139°56'0 0.0
2014-Nov-17 22:09N 35°29' E 139°56'0 0.0
2014-Nov-17 21:32N 35°29' E 139°56'0 0.0
2014-Nov-17 20:30N 35°29' E 139°56'6 6.1
2014-Nov-17 19:33N 35°26' E 139°49'1010.2
2014-Nov-17 18:33N 35°17' E 139°46'  
2014-Nov-15 05:33N 35°19' E 139°43'1010.2
2014-Nov-15 04:33N 35°28' E 139°49'3 3.0
2014-Nov-15 03:33N 35°30' E 139°51'8 1.6
2014-Nov-14 22:28N 35°33' E 140°01'0 0.0
2014-Nov-14 21:33N 35°33' E 140°01'0 0.0
2014-Nov-14 19:25N 35°33' E 140°01'0 0.0
2014-Nov-14 18:31N 35°33' E 140°01'0 0.0
2014-Nov-14 16:28N 35°33' E 140°01'4 3.9
2014-Nov-14 15:28N 35°31' E 139°56'1112.3
2014-Nov-14 14:33N 35°24' E 139°46'  
Track history (hours):
 
Tides and Currents Weather Stations Pressure Air Temp Water Temp Dewpoint Dewpoint Depression Visibility Wind Speed Wind Dir Waves Ship Positions

Eikamaru No.2

Last reported at 2014-Nov-23 05:21 UTC. Time now 2014-Nov-23 12:25 UTC.
Position N 35°16' E 139°46'.

Length 60 m; draft 3.3 m.

Type: Tanker. MMSI: 431001342.

Date/timePositionNaut miles runAvg speedWind from/ knotsBaromVisibWave heightAir tempDewpointWater temp
2014-Nov-23 05:21N 35°16' E 139°46'810.3
2014-Nov-23 04:33N 35°24' E 139°43'1211.4
2014-Nov-23 03:33N 35°31' E 139°54'6 1.1
2014-Nov-22 22:33N 35°33' E 140°00'0 0.0
2014-Nov-22 21:33N 35°33' E 140°00'0 0.0
2014-Nov-22 20:33N 35°33' E 140°00'0 0.0
2014-Nov-22 19:33N 35°33' E 140°00'6 5.7
2014-Nov-22 18:33N 35°30' E 139°54'1212.1
2014-Nov-22 17:33N 35°21' E 139°45'2 0.1
2014-Nov-21 04:33N 35°19' E 139°43'10 9.8
2014-Nov-21 03:33N 35°28' E 139°48'10 2.3
2014-Nov-20 23:27N 35°28' E 140°00'4 0.2
2014-Nov-20 03:30N 35°32' E 140°01'5 0.5
2014-Nov-19 18:16N 35°29' E 139°55'0 0.0
2014-Nov-19 17:33N 35°29' E 139°55'0 0.0
2014-Nov-19 16:33N 35°29' E 139°55'0 0.1
2014-Nov-19 15:32N 35°29' E 139°55'0 0.1
2014-Nov-19 14:33N 35°29' E 139°55'9 9.2
2014-Nov-19 13:33N 35°24' E 139°46'1111.4
2014-Nov-19 12:33N 35°12' E 139°47'9 0.4
2014-Nov-18 10:33N 35°21' E 139°42'1111.2
2014-Nov-18 09:33N 35°30' E 139°51'8 1.8
2014-Nov-18 05:08N 35°33' E 140°00'5 1.3
2014-Nov-18 01:08N 35°29' E 139°56'0 0.0
2014-Nov-18 00:29N 35°29' E 139°56'0 0.0
2014-Nov-17 23:16N 35°29' E 139°56'0 0.0
2014-Nov-17 22:09N 35°29' E 139°56'0 0.0
2014-Nov-17 21:32N 35°29' E 139°56'0 0.0
2014-Nov-17 20:30N 35°29' E 139°56'6 6.1
2014-Nov-17 19:33N 35°26' E 139°49'1010.2
2014-Nov-17 18:33N 35°17' E 139°46'  
2014-Nov-15 05:33N 35°19' E 139°43'1010.2
2014-Nov-15 04:33N 35°28' E 139°49'3 3.0
2014-Nov-15 03:33N 35°30' E 139°51'8 1.6
2014-Nov-14 22:28N 35°33' E 140°01'0 0.0
2014-Nov-14 21:33N 35°33' E 140°01'0 0.0
2014-Nov-14 19:25N 35°33' E 140°01'0 0.0
2014-Nov-14 18:31N 35°33' E 140°01'0 0.0
2014-Nov-14 16:28N 35°33' E 140°01'4 3.9
2014-Nov-14 15:28N 35°31' E 139°56'1112.3
2014-Nov-14 14:33N 35°24' E 139°46'  

Dump ship's entire track history